Time;durP1;ratioP1;P1;durP2;ratioP2;P2;SDS_P1;SDS_P2;PMS_P1;PMS_P2;Temp;Humidity;BMP_temperature;BMP_pressure;BME280_temperature;BME280_humidity;BME280_pressure;Samples;Min_cycle;Max_cycle;Signal;HPM_P1;HPM_P2
2022/10/25 00:00:49;;;;;;;6.30;1.20;;;13.60;99.90;;;;;;6187891;23;20251;-46
2022/10/25 00:03:15;;;;;;;4.60;1.40;;;13.60;99.90;;;;;;6188255;23;20490;-46
2022/10/25 00:05:40;;;;;;;9.73;1.73;;;13.60;99.90;;;;;;6188795;23;20197;-46
2022/10/25 00:08:06;;;;;;;6.47;1.10;;;13.50;99.90;;;;;;6188319;23;20268;-49
2022/10/25 00:10:33;;;;;;;3.90;1.43;;;13.50;99.90;;;;;;6188833;23;20492;-48
2022/10/25 00:12:58;;;;;;;4.73;1.47;;;13.50;99.90;;;;;;6187453;23;20161;-47
2022/10/25 00:15:24;;;;;;;6.93;1.33;;;13.50;99.90;;;;;;6187741;23;20657;-45
2022/10/25 00:17:50;;;;;;;5.93;1.47;;;13.50;99.90;;;;;;6187056;23;20174;-46
2022/10/25 00:20:17;;;;;;;5.00;1.33;;;13.50;99.90;;;;;;6187006;23;20191;-47
2022/10/25 00:22:42;;;;;;;7.70;1.57;;;13.40;99.90;;;;;;6187078;23;20157;-48
2022/10/25 00:25:08;;;;;;;7.30;1.13;;;13.40;99.90;;;;;;6187303;23;20219;-45
2022/10/25 00:27:34;;;;;;;2.30;1.00;;;13.40;99.90;;;;;;6186930;23;20615;-48
2022/10/25 00:30:01;;;;;;;3.97;1.17;;;13.50;99.90;;;;;;6160522;23;20173;-49
2022/10/25 00:32:26;;;;;;;5.43;1.40;;;13.40;99.90;;;;;;6186587;23;20157;-48
2022/10/25 00:34:52;;;;;;;5.13;1.60;;;13.50;99.90;;;;;;6187564;23;20611;-46
2022/10/25 00:37:18;;;;;;;6.70;1.63;;;13.50;99.90;;;;;;6187534;23;20208;-47
2022/10/25 00:39:45;;;;;;;6.90;1.30;;;13.40;99.90;;;;;;6187576;23;20181;-46
2022/10/25 00:42:18;;;;;;;4.90;1.43;;;13.40;99.90;;;;;;6160665;23;20168;-46
2022/10/25 00:44:49;;;;;;;5.50;1.30;;;13.40;99.90;;;;;;6187306;23;20141;-47
2022/10/25 00:47:20;;;;;;;3.93;1.20;;;13.40;99.90;;;;;;6188389;23;20173;-47
2022/10/25 00:50:18;;;;;;;5.83;1.17;;;13.50;99.90;;;;;;6188093;23;20141;-46
2022/10/25 00:52:47;;;;;;;5.83;1.00;;;13.40;99.90;;;;;;6162293;23;20247;-49
2022/10/25 00:55:16;;;;;;;7.23;1.63;;;13.50;99.90;;;;;;6187763;23;20181;-47
2022/10/25 00:57:56;;;;;;;6.53;1.50;;;13.40;99.90;;;;;;6185739;23;20181;-46
2022/10/25 01:00:22;;;;;;;8.13;1.80;;;13.40;99.90;;;;;;6188145;23;20201;-48
2022/10/25 01:02:48;;;;;;;7.63;1.47;;;13.50;99.90;;;;;;6188257;23;20161;-47
2022/10/25 01:05:15;;;;;;;7.00;1.40;;;13.50;99.90;;;;;;6161978;23;20210;-47
2022/10/25 01:07:41;;;;;;;4.20;1.47;;;13.50;99.90;;;;;;6187396;23;20330;-47
2022/10/25 01:10:07;;;;;;;6.03;1.17;;;13.50;99.90;;;;;;6188109;23;20584;-47
2022/10/25 01:12:33;;;;;;;7.63;1.50;;;13.60;99.90;;;;;;6187866;23;20219;-49
2022/10/25 01:15:00;;;;;;;6.80;1.47;;;13.60;99.90;;;;;;6161643;23;20165;-46
2022/10/25 01:17:37;;;;;;;4.27;1.17;;;13.60;99.90;;;;;;6187473;23;20177;-46
2022/10/25 01:20:50;;;;;;;5.10;1.70;;;13.60;99.90;;;;;;6189027;23;20176;-46
2022/10/25 01:23:40;;;;;;;4.30;1.20;;;13.60;99.90;;;;;;6189122;23;20153;-46
2022/10/25 01:26:35;;;;;;;6.43;1.20;;;13.70;99.90;;;;;;6189803;23;20145;-46
2022/10/25 01:29:28;;;;;;;6.53;1.13;;;13.60;99.90;;;;;;6188905;23;20192;-48
2022/10/25 01:32:06;;;;;;;4.83;1.20;;;13.60;99.90;;;;;;6188999;23;20142;-48
2022/10/25 01:34:39;;;;;;;6.27;1.30;;;13.60;99.90;;;;;;6189080;23;20145;-48
2022/10/25 01:37:22;;;;;;;5.70;1.17;;;13.50;99.90;;;;;;6187145;23;20235;-46
2022/10/25 01:40:06;;;;;;;3.97;1.13;;;13.50;99.90;;;;;;6189241;23;20196;-47
2022/10/25 01:42:48;;;;;;;5.90;1.30;;;13.50;99.90;;;;;;6188959;23;20171;-47
2022/10/25 01:45:22;;;;;;;7.23;1.60;;;13.40;99.90;;;;;;6188867;23;20228;-47
2022/10/25 01:47:58;;;;;;;5.97;1.43;;;13.40;99.90;;;;;;6189172;23;20259;-49
2022/10/25 01:50:30;;;;;;;6.33;1.23;;;13.30;99.90;;;;;;6188543;23;20475;-48
2022/10/25 01:52:56;;;;;;;4.67;1.30;;;13.30;99.90;;;;;;6188786;23;20161;-46
2022/10/25 01:55:32;;;;;;;5.53;1.00;;;13.30;99.90;;;;;;6188824;23;20157;-46
2022/10/25 01:58:29;;;;;;;6.37;1.37;;;13.30;99.90;;;;;;6188954;23;20176;-48
2022/10/25 02:01:22;;;;;;;7.17;1.17;;;13.30;99.90;;;;;;6161925;23;20645;-46
2022/10/25 02:03:53;;;;;;;7.60;1.17;;;13.20;99.90;;;;;;6188650;23;20500;-49
2022/10/25 02:07:06;;;;;;;5.93;0.90;;;13.20;99.90;;;;;;6188446;23;20161;-48
2022/10/25 02:09:59;;;;;;;7.10;1.67;;;13.20;99.90;;;;;;6177465;23;20177;-48
2022/10/25 02:12:30;;;;;;;4.20;1.30;;;13.10;99.90;;;;;;6187606;23;20479;-48
2022/10/25 02:15:07;;;;;;;5.07;1.63;;;13.10;99.90;;;;;;6187547;23;20153;-47
2022/10/25 02:17:34;;;;;;;9.37;1.50;;;13.00;99.90;;;;;;6187436;23;20184;-47
2022/10/25 02:20:03;;;;;;;5.50;1.10;;;13.10;99.90;;;;;;6188795;23;20515;-48
2022/10/25 02:22:31;;;;;;;4.53;1.37;;;13.00;99.90;;;;;;6188756;23;20603;-45
2022/10/25 02:24:58;;;;;;;7.93;1.37;;;13.00;99.90;;;;;;6188708;23;20199;-45
2022/10/25 02:27:27;;;;;;;2.80;0.83;;;12.90;99.90;;;;;;6188627;23;20177;-48
2022/10/25 02:29:53;;;;;;;5.57;1.67;;;12.90;99.90;;;;;;6188591;23;20252;-48
2022/10/25 02:32:19;;;;;;;6.63;1.30;;;13.00;99.90;;;;;;6188802;23;20252;-48
2022/10/25 02:34:49;;;;;;;6.43;1.40;;;12.90;99.90;;;;;;6189152;23;20161;-48
2022/10/25 02:37:16;;;;;;;7.73;1.70;;;13.00;99.90;;;;;;6188330;23;20678;-46
2022/10/25 02:39:42;;;;;;;4.77;1.33;;;13.00;99.90;;;;;;6188430;23;20243;-46
2022/10/25 02:42:08;;;;;;;5.50;1.40;;;13.00;99.90;;;;;;6188142;23;20157;-48
2022/10/25 02:44:34;;;;;;;5.50;1.57;;;13.00;99.90;;;;;;6188769;23;20157;-48
2022/10/25 02:46:59;;;;;;;6.07;1.40;;;13.10;99.90;;;;;;6188384;23;20161;-48
2022/10/25 02:49:25;;;;;;;5.23;1.20;;;13.10;99.90;;;;;;6188586;23;20188;-46
2022/10/25 02:51:50;;;;;;;9.77;1.70;;;13.10;99.90;;;;;;6188635;23;20544;-46
2022/10/25 02:54:16;;;;;;;6.67;1.53;;;13.20;99.90;;;;;;6188345;23;20591;-46
2022/10/25 02:56:42;;;;;;;5.53;1.23;;;13.20;99.90;;;;;;6187850;23;20196;-46
2022/10/25 02:59:11;;;;;;;3.80;0.93;;;13.20;99.90;;;;;;6187643;23;20181;-48
2022/10/25 03:01:37;;;;;;;5.47;1.60;;;13.30;99.90;;;;;;6188427;23;20149;-48
2022/10/25 03:04:02;;;;;;;4.70;1.27;;;13.30;99.90;;;;;;6188499;23;20215;-47
2022/10/25 03:06:28;;;;;;;8.97;1.83;;;13.30;99.90;;;;;;6188496;23;20153;-48
2022/10/25 03:08:54;;;;;;;4.17;1.10;;;13.30;99.90;;;;;;6188525;23;20183;-46
2022/10/25 03:11:19;;;;;;;8.57;1.60;;;13.50;99.90;;;;;;6188122;23;20156;-48
2022/10/25 03:13:45;;;;;;;6.80;1.53;;;13.40;99.90;;;;;;6188889;23;20662;-48
2022/10/25 03:16:11;;;;;;;11.00;1.60;;;13.40;99.90;;;;;;6188053;23;20150;-48
2022/10/25 03:18:36;;;;;;;9.30;1.80;;;13.50;99.90;;;;;;6188093;23;20184;-49
2022/10/25 03:21:03;;;;;;;5.83;1.87;;;13.50;99.90;;;;;;6187458;23;20665;-48
2022/10/25 03:23:29;;;;;;;6.07;1.97;;;13.50;99.90;;;;;;6188009;23;20164;-49
2022/10/25 03:25:57;;;;;;;8.37;1.83;;;13.50;99.90;;;;;;6188202;23;20180;-46
2022/10/25 03:28:23;;;;;;;7.33;1.07;;;13.50;99.90;;;;;;6188496;23;20607;-47
2022/10/25 03:30:49;;;;;;;4.77;1.57;;;13.50;99.90;;;;;;6187437;23;20157;-49
2022/10/25 03:33:15;;;;;;;7.00;1.33;;;13.50;99.90;;;;;;6162263;23;20230;-49
2022/10/25 03:35:41;;;;;;;6.67;1.80;;;13.60;99.90;;;;;;6188622;23;20280;-48
2022/10/25 03:38:06;;;;;;;7.83;1.80;;;13.50;99.90;;;;;;6188763;23;20180;-47
2022/10/25 03:40:32;;;;;;;8.13;1.77;;;13.60;99.90;;;;;;6188020;23;20602;-47
2022/10/25 03:42:58;;;;;;;11.60;1.80;;;13.60;99.90;;;;;;6189065;23;20177;-46
2022/10/25 03:45:23;;;;;;;7.07;1.53;;;13.50;99.90;;;;;;6187817;23;20240;-47
2022/10/25 03:47:49;;;;;;;7.30;1.70;;;13.50;99.90;;;;;;6187788;23;20256;-47
2022/10/25 03:50:14;;;;;;;12.03;1.57;;;13.50;99.90;;;;;;6188051;23;20164;-48
2022/10/25 03:52:40;;;;;;;8.67;1.80;;;13.60;99.90;;;;;;6187766;23;20212;-48
2022/10/25 03:55:06;;;;;;;6.50;1.20;;;13.50;99.90;;;;;;6187881;23;20188;-47
2022/10/25 03:57:32;;;;;;;6.93;1.73;;;13.50;99.90;;;;;;6187535;23;20189;-48
2022/10/25 03:59:58;;;;;;;8.43;1.70;;;13.50;99.90;;;;;;6160992;23;20185;-47
2022/10/25 04:02:25;;;;;;;5.13;1.70;;;13.60;99.90;;;;;;6187057;23;20276;-48
2022/10/25 04:04:51;;;;;;;8.93;1.77;;;13.60;99.90;;;;;;6187469;23;20582;-48
2022/10/25 04:07:17;;;;;;;5.23;1.20;;;13.60;99.90;;;;;;6187359;23;20184;-47
2022/10/25 04:09:42;;;;;;;5.00;1.27;;;13.60;99.90;;;;;;6187628;23;20157;-49
2022/10/25 04:12:08;;;;;;;5.27;1.73;;;13.60;99.90;;;;;;6185583;23;20175;-48
2022/10/25 04:14:33;;;;;;;9.70;1.60;;;13.60;99.90;;;;;;6187125;23;20168;-45
2022/10/25 04:16:59;;;;;;;3.93;1.33;;;13.60;99.90;;;;;;6186844;23;20164;-47
2022/10/25 04:19:24;;;;;;;6.17;1.50;;;13.60;99.90;;;;;;6187289;23;20184;-47
2022/10/25 04:21:50;;;;;;;8.47;1.80;;;13.60;99.90;;;;;;6187342;23;20584;-46
2022/10/25 04:24:16;;;;;;;5.53;1.07;;;13.60;99.90;;;;;;6187927;23;20160;-46
2022/10/25 04:26:41;;;;;;;4.00;1.30;;;13.60;99.90;;;;;;6187270;23;20180;-48
2022/10/25 04:29:07;;;;;;;7.83;1.57;;;13.60;99.90;;;;;;6187101;23;20227;-47
2022/10/25 04:31:33;;;;;;;5.53;1.13;;;13.70;99.90;;;;;;6186699;23;20149;-49
2022/10/25 04:33:58;;;;;;;5.03;1.43;;;13.60;99.90;;;;;;6187464;23;20149;-47
2022/10/25 04:36:27;;;;;;;8.33;1.50;;;13.70;99.90;;;;;;6186826;23;20163;-49
2022/10/25 04:38:53;;;;;;;5.57;1.27;;;13.70;99.90;;;;;;6186792;23;20176;-47
2022/10/25 04:41:20;;;;;;;5.93;1.33;;;13.70;99.90;;;;;;6185137;23;20157;-46
2022/10/25 04:43:46;;;;;;;10.03;1.37;;;13.70;99.90;;;;;;6188364;23;20228;-48
2022/10/25 04:46:12;;;;;;;7.10;1.60;;;13.70;99.90;;;;;;6187388;23;20153;-49
2022/10/25 04:48:41;;;;;;;6.53;1.30;;;13.70;99.90;;;;;;6184594;23;20181;-46
2022/10/25 04:51:08;;;;;;;7.30;1.47;;;13.70;99.90;;;;;;6187446;23;20161;-48
2022/10/25 04:53:34;;;;;;;4.40;1.33;;;13.70;99.90;;;;;;6188585;23;20200;-46
2022/10/25 04:56:02;;;;;;;6.97;1.87;;;13.70;99.90;;;;;;6188896;23;20152;-47
2022/10/25 04:58:29;;;;;;;3.43;1.13;;;13.70;99.90;;;;;;6188725;23;20180;-47
2022/10/25 05:00:59;;;;;;;7.07;2.00;;;13.70;99.90;;;;;;6189485;23;20181;-48
2022/10/25 05:03:25;;;;;;;9.17;1.33;;;13.70;99.90;;;;;;6189406;23;20141;-48
2022/10/25 05:05:50;;;;;;;4.63;1.90;;;13.70;99.90;;;;;;6187297;23;20164;-46
2022/10/25 05:08:16;;;;;;;6.20;1.43;;;13.60;99.90;;;;;;6189373;23;20200;-48
2022/10/25 05:10:41;;;;;;;4.97;1.40;;;13.60;99.90;;;;;;6190291;23;20589;-47
2022/10/25 05:13:07;;;;;;;5.53;1.53;;;13.50;99.90;;;;;;6189089;23;20177;-48
2022/10/25 05:15:33;;;;;;;9.33;1.63;;;13.50;99.90;;;;;;6189186;23;20160;-48
2022/10/25 05:17:59;;;;;;;7.60;1.40;;;13.50;99.90;;;;;;6188894;23;20260;-48
2022/10/25 05:20:26;;;;;;;7.93;1.70;;;13.40;99.90;;;;;;6188678;23;20185;-49
2022/10/25 05:22:51;;;;;;;5.43;1.60;;;13.40;99.90;;;;;;6188815;23;20321;-46
2022/10/25 05:25:17;;;;;;;4.27;1.30;;;13.40;99.90;;;;;;6189027;23;20546;-48
2022/10/25 05:27:43;;;;;;;7.93;1.67;;;13.40;99.90;;;;;;6188749;23;20223;-48
2022/10/25 05:30:09;;;;;;;7.03;1.40;;;13.30;99.90;;;;;;6188847;23;20153;-47
2022/10/25 05:32:34;;;;;;;5.97;1.50;;;13.30;99.90;;;;;;6189934;23;20248;-48
2022/10/25 05:35:00;;;;;;;7.37;2.00;;;13.30;99.90;;;;;;6189239;23;20157;-46
2022/10/25 05:37:25;;;;;;;5.03;1.37;;;13.30;99.90;;;;;;6162112;23;20653;-48
2022/10/25 05:39:51;;;;;;;6.30;1.43;;;13.30;99.90;;;;;;6188653;23;20177;-48
2022/10/25 05:42:17;;;;;;;9.30;1.73;;;13.30;99.90;;;;;;6188437;23;20168;-46
2022/10/25 05:44:42;;;;;;;9.27;1.53;;;13.30;99.90;;;;;;6186459;23;20184;-42
2022/10/25 05:47:08;;;;;;;7.87;1.80;;;13.20;99.90;;;;;;6187882;23;20173;-40
2022/10/25 05:49:38;;;;;;;13.70;2.47;;;13.20;99.90;;;;;;6187301;23;20157;-42
2022/10/25 05:52:05;;;;;;;9.10;1.87;;;13.20;99.90;;;;;;6187345;23;20153;-42
2022/10/25 05:54:30;;;;;;;5.10;1.57;;;13.20;99.90;;;;;;6186999;23;20204;-42
2022/10/25 05:56:56;;;;;;;5.00;1.37;;;13.10;99.90;;;;;;6186829;23;20495;-44
2022/10/25 05:59:22;;;;;;;6.93;1.40;;;13.10;99.90;;;;;;6186706;23;20188;-42
2022/10/25 06:01:47;;;;;;;6.20;1.50;;;13.20;99.90;;;;;;6186829;23;20149;-41
2022/10/25 06:04:13;;;;;;;7.43;1.67;;;13.10;99.90;;;;;;6186428;23;20154;-40
2022/10/25 06:06:43;;;;;;;8.37;1.67;;;13.00;99.90;;;;;;6186741;23;20165;-44
2022/10/25 06:09:09;;;;;;;9.37;1.50;;;13.00;99.90;;;;;;6187240;23;20241;-42
2022/10/25 06:11:36;;;;;;;6.37;1.50;;;13.10;99.90;;;;;;6186707;23;20184;-43
2022/10/25 06:14:02;;;;;;;5.93;1.53;;;13.00;99.90;;;;;;6187105;23;20157;-43
2022/10/25 06:16:28;;;;;;;10.87;1.63;;;13.00;99.90;;;;;;6161379;23;20479;-41
2022/10/25 06:18:54;;;;;;;9.03;1.90;;;13.00;99.90;;;;;;6186509;23;20168;-42
2022/10/25 06:21:22;;;;;;;7.97;1.87;;;13.00;99.90;;;;;;6186630;23;20153;-46
2022/10/25 06:23:48;;;;;;;5.27;1.37;;;12.90;99.90;;;;;;6186632;23;20296;-41
2022/10/25 06:26:17;;;;;;;10.00;1.70;;;12.90;99.90;;;;;;6186832;23;20157;-42
2022/10/25 06:28:43;;;;;;;6.03;1.53;;;12.90;99.90;;;;;;6186846;23;20173;-43
2022/10/25 06:31:12;;;;;;;6.50;1.83;;;12.90;99.90;;;;;;6187131;23;20208;-41
2022/10/25 06:33:38;;;;;;;10.60;1.93;;;12.90;99.90;;;;;;6186794;23;20164;-40
2022/10/25 06:36:06;;;;;;;8.53;2.30;;;12.90;99.90;;;;;;6186870;23;20180;-40
2022/10/25 06:38:32;;;;;;;5.17;1.90;;;12.90;99.90;;;;;;6187448;23;20173;-42
2022/10/25 06:40:59;;;;;;;6.07;1.40;;;12.80;99.90;;;;;;6186664;23;20517;-44
2022/10/25 06:43:25;;;;;;;7.57;1.63;;;12.90;99.90;;;;;;6186573;23;20154;-44
2022/10/25 06:45:51;;;;;;;9.83;2.20;;;12.90;99.90;;;;;;6186481;23;20153;-42
2022/10/25 06:48:16;;;;;;;10.10;2.57;;;12.90;99.90;;;;;;6186580;23;20223;-42
2022/10/25 06:50:42;;;;;;;7.83;2.30;;;12.90;99.90;;;;;;6186404;23;20490;-43
2022/10/25 06:53:07;;;;;;;14.13;2.80;;;12.90;99.90;;;;;;6186855;23;20286;-43
2022/10/25 06:55:33;;;;;;;9.37;2.17;;;12.90;99.90;;;;;;6186313;23;20165;-44
2022/10/25 06:57:59;;;;;;;12.47;2.30;;;12.90;99.90;;;;;;6186463;23;20183;-42
2022/10/25 07:00:24;;;;;;;8.60;2.10;;;12.90;99.90;;;;;;6186388;23;20239;-43
2022/10/25 07:02:54;;;;;;;7.90;2.67;;;13.00;99.90;;;;;;6186329;23;20153;-42
2022/10/25 07:05:20;;;;;;;5.93;2.87;;;13.00;99.90;;;;;;6184692;23;20165;-43
2022/10/25 07:07:45;;;;;;;9.50;3.10;;;13.00;99.90;;;;;;6186186;23;20304;-42
2022/10/25 07:10:11;;;;;;;11.00;3.37;;;13.20;99.90;;;;;;6159837;23;20180;-43
2022/10/25 07:12:37;;;;;;;11.27;4.37;;;13.10;99.90;;;;;;6186178;23;20161;-43
2022/10/25 07:15:03;;;;;;;8.40;3.23;;;13.10;99.90;;;;;;6186590;23;20176;-42
2022/10/25 07:17:29;;;;;;;10.47;3.10;;;13.20;99.90;;;;;;6186621;23;20649;-43
2022/10/25 07:19:56;;;;;;;7.93;3.10;;;13.20;99.90;;;;;;6186430;23;20177;-46
2022/10/25 07:22:22;;;;;;;8.23;3.20;;;13.30;99.90;;;;;;6187221;23;20513;-47
2022/10/25 07:24:48;;;;;;;8.73;3.20;;;13.30;99.90;;;;;;6186798;23;20191;-46
2022/10/25 07:27:14;;;;;;;13.93;3.07;;;13.30;99.90;;;;;;6186399;23;20170;-47
2022/10/25 07:29:40;;;;;;;11.37;2.63;;;13.30;99.90;;;;;;6187091;23;20168;-45
2022/10/25 07:32:06;;;;;;;6.00;2.57;;;13.40;99.90;;;;;;6186053;23;20532;-48
2022/10/25 07:34:32;;;;;;;10.70;2.73;;;13.40;99.90;;;;;;6186119;23;20165;-47
2022/10/25 07:36:57;;;;;;;8.57;2.10;;;13.50;99.90;;;;;;6186069;23;20595;-46
2022/10/25 07:39:23;;;;;;;5.30;2.37;;;13.50;99.90;;;;;;6186265;23;20181;-44
2022/10/25 07:41:49;;;;;;;6.53;2.07;;;13.50;99.90;;;;;;6186320;23;20195;-48
2022/10/25 07:44:15;;;;;;;7.83;1.70;;;13.60;99.90;;;;;;6186379;23;20153;-48
2022/10/25 07:46:41;;;;;;;8.03;2.00;;;13.60;99.90;;;;;;6186304;23;20175;-44
2022/10/25 07:49:06;;;;;;;6.63;1.60;;;13.70;99.90;;;;;;6186178;23;20177;-44
2022/10/25 07:51:32;;;;;;;8.23;1.50;;;13.70;99.90;;;;;;6185927;23;20466;-46
2022/10/25 07:53:57;;;;;;;3.87;1.50;;;13.70;99.90;;;;;;6185852;23;20161;-45
2022/10/25 07:56:23;;;;;;;4.40;1.77;;;13.80;99.90;;;;;;6185788;23;20172;-45
2022/10/25 07:58:48;;;;;;;6.87;1.97;;;13.90;99.90;;;;;;6186080;23;20256;-46
2022/10/25 08:01:22;;;;;;;8.77;1.93;;;13.90;99.90;;;;;;6184400;23;20272;-47
2022/10/25 08:03:47;;;;;;;11.53;1.80;;;14.00;99.90;;;;;;6186126;23;20145;-46
2022/10/25 08:06:13;;;;;;;8.30;1.70;;;14.00;99.90;;;;;;6185940;23;20204;-46
2022/10/25 08:08:39;;;;;;;9.93;2.07;;;14.10;99.90;;;;;;6185451;23;20192;-44
2022/10/25 08:11:07;;;;;;;9.93;2.00;;;14.20;99.90;;;;;;6185730;23;20189;-45
2022/10/25 08:13:36;;;;;;;7.43;2.10;;;14.30;99.90;;;;;;6185680;23;20283;-45
2022/10/25 08:16:02;;;;;;;10.93;2.43;;;14.50;99.90;;;;;;6185593;23;20161;-47
2022/10/25 08:18:27;;;;;;;9.27;2.30;;;14.60;99.90;;;;;;6185632;23;20179;-45
2022/10/25 08:20:53;;;;;;;9.03;1.93;;;14.60;99.90;;;;;;6185453;23;20264;-46
2022/10/25 08:23:19;;;;;;;12.37;1.80;;;14.70;99.90;;;;;;6185998;23;20157;-47
2022/10/25 08:25:45;;;;;;;7.50;2.00;;;14.70;99.90;;;;;;6186111;23;20157;-46
2022/10/25 08:28:11;;;;;;;8.03;2.23;;;14.70;99.90;;;;;;6185679;23;20248;-46
2022/10/25 08:30:37;;;;;;;7.93;1.97;;;14.80;99.90;;;;;;6186287;23;20293;-47
2022/10/25 08:33:02;;;;;;;7.07;1.67;;;14.70;99.90;;;;;;6186214;23;20587;-48
2022/10/25 08:35:28;;;;;;;5.33;1.90;;;14.80;99.90;;;;;;6159500;23;20547;-46
2022/10/25 08:37:53;;;;;;;9.13;1.60;;;14.80;99.90;;;;;;6186091;23;20181;-45
2022/10/25 08:40:23;;;;;;;4.80;1.63;;;14.80;99.90;;;;;;6185641;23;20691;-46
2022/10/25 08:42:59;;;;;;;8.70;1.77;;;14.80;99.90;;;;;;6186203;23;20150;-46
2022/10/25 08:45:38;;;;;;;4.67;1.90;;;14.80;99.90;;;;;;6185933;23;20229;-47
2022/10/25 08:48:10;;;;;;;4.67;2.00;;;14.80;99.90;;;;;;6185906;23;20504;-47
2022/10/25 08:50:46;;;;;;;4.37;1.77;;;14.90;99.90;;;;;;6185907;23;20138;-44
2022/10/25 08:53:26;;;;;;;7.20;2.40;;;14.90;99.90;;;;;;6185888;23;20157;-46
2022/10/25 08:55:53;;;;;;;6.57;2.60;;;14.90;99.90;;;;;;6185731;23;20145;-46
2022/10/25 08:58:35;;;;;;;5.83;1.77;;;14.90;99.90;;;;;;6159039;23;20187;-45
2022/10/25 09:01:09;;;;;;;7.30;1.57;;;14.90;99.90;;;;;;6185809;23;20502;-46
2022/10/25 09:03:35;;;;;;;4.23;1.40;;;14.90;99.90;;;;;;6185474;23;20180;-46
2022/10/25 09:06:06;;;;;;;7.33;2.43;;;14.90;99.90;;;;;;6185525;23;20153;-45
2022/10/25 09:09:03;;;;;;;4.10;1.67;;;14.90;99.90;;;;;;6185377;23;20589;-45
2022/10/25 09:11:47;;;;;;;4.90;1.80;;;15.00;99.90;;;;;;6185604;23;20139;-47
2022/10/25 09:14:37;;;;;;;4.97;1.40;;;15.00;99.90;;;;;;6185745;23;20188;-49
2022/10/25 09:17:27;;;;;;;5.57;1.70;;;15.10;99.90;;;;;;6185634;23;20173;-45
2022/10/25 09:20:21;;;;;;;5.90;1.40;;;15.10;99.90;;;;;;6185424;23;20210;-48
2022/10/25 09:22:53;;;;;;;6.23;1.33;;;15.20;99.90;;;;;;6183879;23;20149;-48
2022/10/25 09:25:18;;;;;;;5.90;1.13;;;15.20;99.90;;;;;;6185452;23;20145;-49
2022/10/25 09:28:02;;;;;;;8.70;1.40;;;15.30;99.90;;;;;;6186430;23;20608;-46
2022/10/25 09:30:30;;;;;;;2.87;1.17;;;15.40;99.90;;;;;;6185668;23;20156;-47
2022/10/25 09:33:04;;;;;;;7.93;1.60;;;15.40;99.90;;;;;;6185743;23;20219;-48
2022/10/25 09:35:46;;;;;;;5.07;1.30;;;15.50;99.90;;;;;;6185555;23;20136;-47
2022/10/25 09:38:23;;;;;;;3.30;0.90;;;15.50;99.90;;;;;;6159525;23;20198;-48
2022/10/25 09:40:58;;;;;;;7.50;1.47;;;15.60;99.90;;;;;;6187041;23;20254;-47
2022/10/25 09:43:34;;;;;;;6.80;1.60;;;15.60;99.90;;;;;;6187797;23;20144;-48
2022/10/25 09:46:12;;;;;;;8.60;1.60;;;15.70;99.90;;;;;;6187023;23;20150;-48
2022/10/25 09:48:58;;;;;;;5.97;1.40;;;15.80;99.90;;;;;;6187378;23;20200;-46
2022/10/25 09:51:53;;;;;;;9.07;1.77;;;15.80;99.90;;;;;;6161293;23;20157;-48
2022/10/25 09:54:38;;;;;;;6.70;1.93;;;15.80;99.90;;;;;;6160667;23;20164;-47
2022/10/25 09:57:04;;;;;;;11.60;1.77;;;15.80;99.90;;;;;;6160493;23;20228;-45
2022/10/25 09:59:30;;;;;;;6.57;1.57;;;15.80;99.90;;;;;;6187181;23;20188;-48
2022/10/25 10:01:55;;;;;;;6.73;1.70;;;15.80;99.90;;;;;;6160590;23;20167;-47
2022/10/25 10:04:33;;;;;;;6.30;1.57;;;15.80;99.90;;;;;;6186927;23;20203;-48
2022/10/25 10:07:11;;;;;;;5.60;1.53;;;15.80;99.90;;;;;;6185250;23;20243;-47
2022/10/25 10:09:39;;;;;;;4.80;1.50;;;15.80;99.90;;;;;;6187567;23;20156;-42
2022/10/25 10:12:10;;;;;;;7.47;1.43;;;15.90;99.90;;;;;;6186993;23;20157;-43
2022/10/25 10:14:40;;;;;;;5.63;1.30;;;15.80;99.90;;;;;;6187215;23;20145;-42
2022/10/25 10:17:12;;;;;;;6.90;1.87;;;15.80;99.90;;;;;;6187088;23;20519;-41
2022/10/25 10:19:39;;;;;;;9.40;2.03;;;15.90;99.90;;;;;;6187008;23;20168;-41
2022/10/25 10:22:13;;;;;;;8.17;1.50;;;15.90;99.90;;;;;;6187029;23;20177;-39
2022/10/25 10:24:41;;;;;;;5.20;1.50;;;15.90;99.90;;;;;;6186985;23;20157;-38
2022/10/25 10:27:10;;;;;;;4.50;1.60;;;16.00;99.90;;;;;;6186603;23;20172;-40
2022/10/25 10:29:47;;;;;;;5.83;1.40;;;16.00;99.90;;;;;;6186697;23;20160;-44
2022/10/25 10:32:33;;;;;;;5.10;1.50;;;16.10;99.90;;;;;;6187038;23;20141;-41
2022/10/25 10:35:01;;;;;;;7.90;1.40;;;16.10;99.90;;;;;;6187538;23;20510;-40
2022/10/25 10:37:29;;;;;;;8.20;2.10;;;16.20;99.90;;;;;;6185001;23;20181;-43
2022/10/25 10:40:21;;;;;;;5.57;1.60;;;16.20;99.90;;;;;;6186782;23;20177;-42
2022/10/25 10:42:46;;;;;;;6.13;1.33;;;16.30;99.90;;;;;;6187501;23;20164;-45
2022/10/25 10:45:18;;;;;;;14.63;1.87;;;16.40;99.90;;;;;;6187038;23;20232;-40
2022/10/25 10:47:50;;;;;;;4.80;1.33;;;16.50;99.90;;;;;;6187120;23;20231;-42
2022/10/25 10:50:24;;;;;;;8.87;1.80;;;16.60;99.90;;;;;;6187251;23;20599;-42
2022/10/25 10:52:55;;;;;;;9.43;1.80;;;16.70;99.90;;;;;;6187113;23;20176;-42
2022/10/25 10:55:36;;;;;;;4.13;1.77;;;16.80;99.90;;;;;;6186477;23;20181;-40
2022/10/25 10:58:30;;;;;;;16.87;1.60;;;16.80;99.90;;;;;;6187340;23;20223;-42
2022/10/25 11:00:57;;;;;;;8.40;1.70;;;16.80;99.90;;;;;;6160027;23;20185;-41
2022/10/25 11:03:40;;;;;;;4.53;1.30;;;16.90;99.90;;;;;;6187028;23;20153;-41
2022/10/25 11:06:30;;;;;;;4.73;0.97;;;17.00;99.90;;;;;;6186873;23;20177;-41
2022/10/25 11:09:11;;;;;;;7.27;1.43;;;17.00;99.90;;;;;;6186801;23;20563;-41
2022/10/25 11:11:38;;;;;;;4.70;1.13;;;17.00;99.90;;;;;;6186645;23;20157;-42
2022/10/25 11:14:13;;;;;;;4.33;1.10;;;17.10;99.90;;;;;;6186399;23;20599;-42
2022/10/25 11:16:42;;;;;;;5.80;1.20;;;17.10;99.90;;;;;;6186587;23;20599;-40
2022/10/25 11:19:25;;;;;;;4.60;1.10;;;17.00;99.90;;;;;;6186604;23;20229;-41
2022/10/25 11:22:01;;;;;;;6.03;1.20;;;17.00;99.90;;;;;;6186289;23;20137;-44
2022/10/25 11:24:40;;;;;;;8.13;1.47;;;17.10;99.90;;;;;;6186609;23;20137;-40
2022/10/25 11:27:34;;;;;;;5.63;1.63;;;17.10;99.90;;;;;;6184759;23;20570;-42
2022/10/25 11:30:13;;;;;;;6.20;1.10;;;17.20;99.90;;;;;;6143321;23;20167;-41
2022/10/25 11:33:21;;;;;;;6.87;1.27;;;17.30;99.90;;;;;;6160120;23;20153;-40
2022/10/25 11:36:21;;;;;;;3.53;1.20;;;17.40;99.90;;;;;;6120742;23;20248;-43
2022/10/25 11:38:49;;;;;;;4.63;1.20;;;17.40;99.90;;;;;;6186368;23;20563;-41
2022/10/25 11:41:42;;;;;;;5.43;1.33;;;17.30;99.90;;;;;;6186634;23;20185;-42
2022/10/25 11:44:33;;;;;;;4.47;1.00;;;17.30;99.90;;;;;;6131875;23;20546;-41
2022/10/25 11:47:05;;;;;;;6.50;1.30;;;17.30;99.90;;;;;;6186742;23;20137;-40
2022/10/25 11:49:42;;;;;;;5.77;1.30;;;17.40;99.90;;;;;;6185996;23;20191;-43
2022/10/25 11:52:22;;;;;;;6.07;1.53;;;17.40;99.90;;;;;;6186612;23;20630;-41
2022/10/25 11:54:51;;;;;;;3.87;1.00;;;17.30;99.90;;;;;;6186405;23;20153;-44
2022/10/25 11:57:35;;;;;;;4.70;1.00;;;17.30;99.90;;;;;;6186242;23;20263;-42
2022/10/25 12:00:11;;;;;;;4.20;0.83;;;17.30;99.90;;;;;;6186217;23;20184;-43
2022/10/25 12:03:15;;;;;;;4.93;1.20;;;17.20;99.90;;;;;;6186306;23;20172;-41
2022/10/25 12:06:07;;;;;;;2.20;0.90;;;17.30;99.90;;;;;;6140984;23;20507;-41
2022/10/25 12:08:53;;;;;;;6.53;1.00;;;17.20;99.90;;;;;;6185862;23;20195;-41
2022/10/25 12:11:30;;;;;;;4.10;1.00;;;17.30;99.90;;;;;;6186221;23;20169;-43
2022/10/25 12:14:00;;;;;;;3.93;0.90;;;17.40;99.90;;;;;;6186277;23;20141;-42
2022/10/25 12:16:29;;;;;;;1.97;0.73;;;17.50;99.90;;;;;;6184519;23;20599;-42
2022/10/25 12:19:07;;;;;;;4.13;1.20;;;17.60;99.90;;;;;;6186485;23;20641;-42
2022/10/25 12:22:03;;;;;;;2.50;0.87;;;17.70;99.90;;;;;;6160968;23;20219;-42
2022/10/25 12:24:45;;;;;;;2.30;0.80;;;17.70;99.90;;;;;;6184722;23;20195;-44
2022/10/25 12:27:15;;;;;;;4.13;0.97;;;17.80;99.90;;;;;;6162651;23;20196;-41
2022/10/25 12:29:45;;;;;;;6.13;0.90;;;17.80;99.90;;;;;;6186258;23;20160;-44
2022/10/25 12:32:19;;;;;;;2.70;0.67;;;17.90;99.90;;;;;;6186320;23;20157;-45
2022/10/25 12:34:49;;;;;;;2.57;1.20;;;17.90;99.90;;;;;;6185797;23;20148;-42
2022/10/25 12:37:29;;;;;;;2.40;0.80;;;17.90;99.90;;;;;;6185595;23;20176;-42
2022/10/25 12:39:55;;;;;;;3.40;0.77;;;18.00;99.90;;;;;;6185494;23;20173;-41
2022/10/25 12:42:30;;;;;;;2.90;0.90;;;18.00;99.90;;;;;;6185923;23;20466;-41
2022/10/25 12:45:32;;;;;;;2.07;0.67;;;18.00;99.90;;;;;;6185633;23;20215;-42
2022/10/25 12:48:20;;;;;;;4.63;1.03;;;18.10;99.90;;;;;;6185817;23;20172;-43
2022/10/25 12:51:20;;;;;;;2.47;0.83;;;18.00;99.90;;;;;;6185036;23;20215;-43
2022/10/25 12:54:24;;;;;;;3.20;1.20;;;17.90;99.90;;;;;;6185927;23;20180;-43
2022/10/25 12:57:13;;;;;;;3.90;0.97;;;17.80;99.90;;;;;;6140421;23;20160;-42
2022/10/25 12:59:53;;;;;;;6.37;1.47;;;17.70;99.90;;;;;;6183955;23;20177;-41
2022/10/25 13:02:52;;;;;;;1.40;0.60;;;17.80;99.90;;;;;;6185507;23;20137;-43
2022/10/25 13:05:49;;;;;;;3.60;1.20;;;17.80;99.90;;;;;;6185446;23;20233;-42
2022/10/25 13:08:18;;;;;;;2.63;0.97;;;17.70;99.90;;;;;;6185282;23;20268;-42